Time;durP1;ratioP1;P1;durP2;ratioP2;P2;SDS_P1;SDS_P2;PMS_P1;PMS_P2;Temp;Humidity;BMP_temperature;BMP_pressure;BME280_temperature;BME280_humidity;BME280_pressure;Samples;Min_cycle;Max_cycle;Signal;HPM_P1;HPM_P2
2022/03/08 00:01:52;;;;;;;18.93;8.90;;;;;;;2.36;38.88;100934.75;5354306;32;35082;-69
2022/03/08 00:04:54;;;;;;;19.27;9.07;;;;;;;2.38;39.01;100948.59;5386156;32;34713;-70
2022/03/08 00:07:56;;;;;;;19.27;9.60;;;;;;;1.67;40.61;100946.53;5376810;32;34635;-70
2022/03/08 00:10:59;;;;;;;20.03;8.83;;;;;;;1.50;40.96;100931.75;5377627;32;35474;-70
2022/03/08 00:14:02;;;;;;;17.60;8.50;;;;;;;1.68;40.67;100938.78;5375204;32;34410;-69
2022/03/08 00:17:04;;;;;;;19.80;9.10;;;;;;;2.50;39.35;100938.25;5381856;32;34314;-69
2022/03/08 00:20:08;;;;;;;20.50;8.83;;;;;;;2.00;40.56;100940.69;5380587;32;34893;-69
2022/03/08 00:23:10;;;;;;;20.48;9.45;;;;;;;1.72;41.12;100944.84;5380901;32;44759;-70
2022/03/08 00:26:12;;;;;;;19.63;9.17;;;;;;;1.96;40.91;100933.75;5391090;32;34526;-71
2022/03/08 00:29:14;;;;;;;17.00;8.30;;;;;;;2.03;41.02;100927.72;5383180;32;34774;-69
2022/03/08 00:32:17;;;;;;;19.27;8.73;;;;;;;1.99;40.39;100931.16;5376903;32;34599;-68
2022/03/08 00:35:19;;;;;;;17.60;8.47;;;;;;;2.25;40.42;100928.66;5392244;32;32622;-69
2022/03/08 00:38:23;;;;;;;19.07;8.30;;;;;;;1.97;41.24;100925.97;5379520;32;34830;-70
2022/03/08 00:41:25;;;;;;;18.27;8.57;;;;;;;2.26;41.10;100922.63;5358469;32;34878;-69
2022/03/08 00:44:28;;;;;;;19.47;9.33;;;;;;;1.93;41.88;100916.44;5380614;32;34749;-69
2022/03/08 00:47:30;;;;;;;19.23;8.70;;;;;;;1.75;42.09;100911.19;5374000;32;35217;-69
2022/03/08 00:50:32;;;;;;;19.87;9.10;;;;;;;1.60;42.49;100917.12;5365002;32;35472;-69
2022/03/08 00:53:34;;;;;;;18.67;8.37;;;;;;;1.95;41.94;100904.34;5383751;32;34609;-69
2022/03/08 00:56:37;;;;;;;18.37;9.03;;;;;;;1.72;42.40;100918.91;5374909;32;34433;-69
2022/03/08 00:59:39;;;;;;;18.83;8.40;;;;;;;1.88;42.18;100920.75;5387164;32;35700;-68
2022/03/08 01:02:42;;;;;;;18.27;7.90;;;;;;;1.81;42.89;100918.97;5378260;32;46429;-69
2022/03/08 01:05:44;;;;;;;16.63;7.77;;;;;;;1.86;42.70;100923.31;5393913;32;34389;-69
2022/03/08 01:08:46;;;;;;;17.83;7.93;;;;;;;2.69;41.21;100913.19;5360746;32;34818;-69
2022/03/08 01:11:48;;;;;;;16.53;8.13;;;;;;;2.26;41.86;100907.94;5382670;32;34570;-68
2022/03/08 01:14:51;;;;;;;16.33;8.33;;;;;;;2.19;41.88;100911.37;5383173;32;35343;-69
2022/03/08 01:17:55;;;;;;;18.23;8.60;;;;;;;2.14;42.28;100908.75;5382667;32;35368;-70
2022/03/08 01:20:58;;;;;;;17.67;8.82;;;;;;;1.99;42.75;100900.91;5376409;32;35428;-69
2022/03/08 01:24:00;;;;;;;18.80;8.50;;;;;;;2.43;41.74;100906.22;5374197;32;34560;-69
2022/03/08 01:27:03;;;;;;;15.93;7.80;;;;;;;2.20;42.59;100904.44;5385152;32;35060;-69
2022/03/08 01:30:07;;;;;;;16.83;7.87;;;;;;;2.96;40.81;100904.56;5377194;32;34748;-69
2022/03/08 01:33:09;;;;;;;18.37;9.10;;;;;;;2.15;42.58;100909.62;5384976;32;39165;-70
2022/03/08 01:36:12;;;;;;;17.47;8.67;;;;;;;2.62;41.62;100899.34;5382316;32;45281;-68
2022/03/08 01:39:14;;;;;;;18.87;8.70;;;;;;;2.35;42.21;100904.50;5369316;32;34377;-69
2022/03/08 01:42:18;;;;;;;15.80;8.03;;;;;;;1.96;43.03;100908.69;5373360;32;33425;-68
2022/03/08 01:45:23;;;;;;;18.12;8.15;;;;;;;1.65;43.87;100906.78;5392817;32;36435;-69
2022/03/08 01:48:25;;;;;;;16.23;7.60;;;;;;;1.85;43.68;100906.03;5365448;32;35174;-69
2022/03/08 01:51:28;;;;;;;16.03;7.77;;;;;;;1.83;43.82;100909.47;5388753;32;34794;-69
2022/03/08 01:54:30;;;;;;;17.83;7.33;;;;;;;2.03;43.33;100910.44;5377047;32;34612;-69
2022/03/08 01:57:32;;;;;;;17.77;8.57;;;;;;;2.12;42.86;100894.87;5390073;32;35054;-69
2022/03/08 02:00:34;;;;;;;16.93;7.83;;;;;;;1.80;43.75;100904.25;5380512;32;35168;-70
2022/03/08 02:03:37;;;;;;;17.83;8.40;;;;;;;2.08;43.26;100903.53;5377490;32;34814;-69
2022/03/08 02:06:39;;;;;;;19.00;8.33;;;;;;;1.47;44.75;100908.41;5382056;32;36988;-69
2022/03/08 02:09:42;;;;;;;16.57;7.63;;;;;;;2.05;43.63;100903.50;5352313;32;34670;-69
2022/03/08 02:12:44;;;;;;;17.37;8.37;;;;;;;2.37;43.03;100906.22;5383301;32;35464;-69
2022/03/08 02:15:50;;;;;;;16.87;8.63;;;;;;;2.41;42.23;100896.72;5387314;32;34273;-69
2022/03/08 02:18:52;;;;;;;18.53;7.90;;;;;;;1.85;44.09;100902.56;5391772;32;36717;-69
2022/03/08 02:21:55;;;;;;;16.07;8.20;;;;;;;2.31;42.65;100898.41;5356276;32;35052;-70
2022/03/08 02:24:57;;;;;;;15.07;7.93;;;;;;;2.86;41.64;100900.25;5407162;32;34640;-71
2022/03/08 02:27:59;;;;;;;18.07;8.27;;;;;;;2.50;42.35;100901.91;5346224;32;36652;-70
2022/03/08 02:31:02;;;;;;;15.60;7.63;;;;;;;1.67;44.25;100903.34;5375421;32;34583;-69
2022/03/08 02:34:04;;;;;;;16.13;8.07;;;;;;;2.88;41.81;100898.50;5370757;32;34144;-69
2022/03/08 02:37:11;;;;;;;17.50;8.50;;;;;;;2.08;43.10;100907.87;5350218;32;35044;-69
2022/03/08 02:40:18;;;;;;;17.40;9.07;;;;;;;1.73;44.35;100910.28;5377523;32;44394;-69
2022/03/08 02:43:20;;;;;;;20.37;8.93;;;;;;;1.92;44.17;100906.91;5366012;32;35473;-69
2022/03/08 02:46:23;;;;;;;19.50;8.67;;;;;;;2.29;43.18;100900.16;5396280;32;34514;-69
2022/03/08 02:49:25;;;;;;;17.60;8.37;;;;;;;2.55;42.92;100900.22;5374049;32;34801;-69
2022/03/08 02:52:27;;;;;;;16.30;8.13;;;;;;;2.39;42.99;100908.84;5364108;32;34578;-68
2022/03/08 02:55:31;;;;;;;18.63;8.63;;;;;;;2.44;43.36;100905.38;5383879;32;35361;-68
2022/03/08 02:58:33;;;;;;;19.00;8.48;;;;;;;2.54;43.30;100910.59;5371498;32;34148;-69
2022/03/08 03:01:35;;;;;;;17.10;8.77;;;;;;;2.35;43.50;100914.87;5404498;32;34505;-68
2022/03/08 03:04:37;;;;;;;17.87;8.90;;;;;;;2.81;42.67;100914.94;5362614;32;34500;-69
2022/03/08 03:07:40;;;;;;;17.47;8.70;;;;;;;2.63;42.45;100908.88;5352806;32;45506;-69
2022/03/08 03:10:43;;;;;;;32.23;9.97;;;;;;;1.74;44.93;100918.09;5381155;32;35888;-70
2022/03/08 03:13:45;;;;;;;23.17;9.70;;;;;;;1.66;45.31;100921.47;5359552;32;34208;-69
2022/03/08 03:16:47;;;;;;;17.43;9.03;;;;;;;1.82;45.22;100921.56;5365695;32;34697;-70
2022/03/08 03:19:50;;;;;;;19.30;9.90;;;;;;;1.77;45.14;100918.09;5365208;32;35813;-69
2022/03/08 03:22:52;;;;;;;19.63;9.60;;;;;;;2.54;43.51;100914.06;5394253;32;34663;-69
2022/03/08 03:25:54;;;;;;;19.43;10.13;;;;;;;1.82;44.65;100920.72;5382372;32;34099;-69
2022/03/08 03:28:57;;;;;;;22.23;10.57;;;;;;;1.66;45.74;100921.47;5380253;32;34292;-68
2022/03/08 03:31:59;;;;;;;19.57;9.50;;;;;;;2.55;43.56;100910.59;5376564;32;34650;-68
2022/03/08 03:35:02;;;;;;;19.27;9.27;;;;;;;1.31;46.36;100924.72;5367140;32;34287;-68
2022/03/08 03:38:04;;;;;;;18.00;8.60;;;;;;;2.45;44.02;100908.84;5390168;32;35154;-69
2022/03/08 03:41:06;;;;;;;21.50;9.87;;;;;;;3.17;41.85;100907.19;5357407;32;34149;-69
2022/03/08 03:44:08;;;;;;;18.47;9.60;;;;;;;1.84;44.57;100908.63;5396105;32;34091;-69
2022/03/08 03:47:10;;;;;;;20.03;9.70;;;;;;;1.85;45.19;100916.38;5392315;32;45763;-69
2022/03/08 03:50:13;;;;;;;17.83;9.93;;;;;;;1.80;45.35;100912.94;5393813;32;34244;-69
2022/03/08 03:53:15;;;;;;;20.07;9.33;;;;;;;2.24;44.57;100914.81;5383888;32;35367;-69
2022/03/08 03:56:17;;;;;;;21.73;9.47;;;;;;;1.57;45.86;100912.78;5383417;32;35275;-69
2022/03/08 03:59:20;;;;;;;23.30;10.43;;;;;;;0.86;47.75;100912.28;5394139;32;34680;-69
2022/03/08 04:02:22;;;;;;;20.50;10.37;;;;;;;1.18;47.43;100935.84;5370227;32;35593;-69
2022/03/08 04:05:24;;;;;;;18.03;9.87;;;;;;;1.05;47.52;100937.47;5379812;32;35302;-69
2022/03/08 04:08:26;;;;;;;30.13;10.93;;;;;;;1.38;46.86;100921.31;5368393;32;35388;-69
2022/03/08 04:11:29;;;;;;;22.00;10.93;;;;;;;1.04;47.57;100927.97;5372923;32;36033;-68
2022/03/08 04:14:31;;;;;;;23.13;10.80;;;;;;;1.36;46.85;100930.81;5376551;32;35379;-69
2022/03/08 04:17:33;;;;;;;20.27;9.60;;;;;;;1.12;47.82;100933.19;5388047;32;37145;-69
2022/03/08 04:20:35;;;;;;;24.07;10.63;;;;;;;1.48;46.96;100930.00;5393304;32;34606;-69
2022/03/08 04:23:38;;;;;;;20.97;9.97;;;;;;;2.35;44.94;100926.09;5345285;32;34425;-70
2022/03/08 04:26:40;;;;;;;23.03;10.87;;;;;;;2.33;44.74;100925.25;5387463;32;37878;-68
2022/03/08 04:29:42;;;;;;;25.77;11.53;;;;;;;0.89;47.86;100941.63;5361951;32;35763;-68
2022/03/08 04:32:44;;;;;;;23.23;10.43;;;;;;;0.68;48.74;100931.06;5355217;32;35479;-68
2022/03/08 04:35:47;;;;;;;20.23;10.50;;;;;;;0.78;48.87;100938.94;5371115;32;34362;-69
2022/03/08 04:38:49;;;;;;;19.93;10.47;;;;;;;1.55;47.11;100932.66;5374047;32;35073;-69
2022/03/08 04:41:51;;;;;;;23.17;10.83;;;;;;;1.74;46.59;100930.16;5337370;32;34864;-69
2022/03/08 04:44:53;;;;;;;22.70;11.50;;;;;;;1.72;46.50;100921.50;5365203;32;34545;-68
2022/03/08 04:47:56;;;;;;;21.17;10.63;;;;;;;1.39;47.14;100927.34;5382349;32;34841;-69
2022/03/08 04:50:58;;;;;;;22.30;10.93;;;;;;;1.28;47.23;100922.09;5353114;32;35065;-69
2022/03/08 04:54:00;;;;;;;20.90;11.43;;;;;;;1.19;47.70;100924.63;5356289;32;35153;-68
2022/03/08 04:57:03;;;;;;;33.63;12.30;;;;;;;0.76;48.94;100921.66;5375701;32;33505;-69
2022/03/08 05:00:11;;;;;;;24.93;11.53;;;;;;;1.06;48.16;100916.75;5382063;32;34113;-70
2022/03/08 05:03:13;;;;;;;23.00;10.70;;;;;;;0.77;49.09;100924.28;5380628;32;44021;-70
2022/03/08 05:06:16;;;;;;;24.63;11.93;;;;;;;2.14;45.72;100913.06;5378277;32;34511;-70
2022/03/08 05:09:19;;;;;;;24.83;11.80;;;;;;;1.22;47.61;100916.84;5387307;32;34582;-68
2022/03/08 05:12:21;;;;;;;24.57;12.57;;;;;;;1.44;47.72;100917.91;5347476;32;35431;-69
2022/03/08 05:15:23;;;;;;;21.07;10.90;;;;;;;1.75;47.08;100914.63;5388950;32;35537;-69
2022/03/08 05:18:25;;;;;;;22.73;10.67;;;;;;;2.42;45.28;100914.87;5385951;32;34621;-70
2022/03/08 05:21:27;;;;;;;23.57;11.33;;;;;;;2.54;44.72;100902.81;5377775;32;35020;-70
2022/03/08 05:24:29;;;;;;;23.03;11.67;;;;;;;1.89;45.89;100912.09;5361363;32;35197;-69
2022/03/08 05:27:32;;;;;;;25.33;11.77;;;;;;;1.77;47.09;100917.22;5371846;32;34046;-68
2022/03/08 05:30:35;;;;;;;23.15;10.90;;;;;;;1.33;48.09;100916.09;5376803;32;34229;-69
2022/03/08 05:33:37;;;;;;;23.47;11.80;;;;;;;2.46;45.29;100915.75;5369869;32;35290;-68
2022/03/08 05:36:39;;;;;;;22.83;11.53;;;;;;;2.54;44.91;100913.19;5345686;32;34255;-69
2022/03/08 05:39:41;;;;;;;29.57;11.43;;;;;;;2.80;44.35;100905.44;5353993;32;45071;-70
2022/03/08 05:42:44;;;;;;;28.83;12.87;;;;;;;2.69;44.66;100918.37;5375689;32;34734;-69
2022/03/08 05:45:46;;;;;;;24.00;12.13;;;;;;;2.08;45.96;100919.09;5368134;32;35320;-69
2022/03/08 05:48:48;;;;;;;25.13;12.43;;;;;;;2.72;44.68;100918.41;5376289;32;34829;-68
2022/03/08 05:51:50;;;;;;;25.93;13.13;;;;;;;0.96;49.37;100935.63;5366564;32;34682;-69
2022/03/08 05:54:52;;;;;;;31.07;13.17;;;;;;;1.50;48.13;100920.53;5383205;32;34567;-68
2022/03/08 05:57:55;;;;;;;26.20;13.53;;;;;;;1.22;48.71;100932.41;5384843;32;34553;-70
2022/03/08 06:00:57;;;;;;;28.03;13.33;;;;;;;1.45;48.07;100930.84;5386808;32;35024;-70
2022/03/08 06:03:59;;;;;;;31.90;14.53;;;;;;;0.66;49.98;100932.78;5363306;32;34544;-69
2022/03/08 06:07:02;;;;;;;32.97;13.53;;;;;;;0.81;50.33;100936.38;5373398;32;34828;-69
2022/03/08 06:10:08;;;;;;;29.63;13.97;;;;;;;0.41;50.67;100942.88;5370608;32;34547;-69
2022/03/08 06:13:10;;;;;;;27.03;13.17;;;;;;;1.23;49.25;100936.75;5385993;32;45176;-68
2022/03/08 06:16:13;;;;;;;25.27;13.13;;;;;;;0.69;50.41;100943.16;5386589;32;33987;-69
2022/03/08 06:19:15;;;;;;;27.55;13.20;;;;;;;1.10;50.00;100945.28;5393322;32;35487;-70
2022/03/08 06:22:17;;;;;;;26.87;13.43;;;;;;;1.19;50.02;100955.69;5369330;32;35671;-68
2022/03/08 06:25:20;;;;;;;24.27;12.67;;;;;;;0.88;50.43;100963.19;5374200;32;34950;-69
2022/03/08 06:28:22;;;;;;;27.80;14.10;;;;;;;1.52;49.22;100961.12;5394470;32;35360;-70
2022/03/08 06:31:25;;;;;;;24.67;12.95;;;;;;;2.13;47.48;100964.06;5372206;32;33483;-69
2022/03/08 06:34:27;;;;;;;29.40;12.63;;;;;;;2.15;46.66;100948.50;5389835;32;34151;-69
2022/03/08 06:37:29;;;;;;;24.63;13.43;;;;;;;2.23;46.69;100954.59;5379644;32;35351;-69
2022/03/08 06:40:32;;;;;;;25.70;14.03;;;;;;;2.55;46.02;100952.09;5372093;32;34058;-69
2022/03/08 06:43:34;;;;;;;29.20;14.93;;;;;;;2.56;45.93;100953.84;5387696;32;35432;-72
2022/03/08 06:46:41;;;;;;;24.57;13.23;;;;;;;2.26;46.90;100958.94;5350195;32;32521;-68
2022/03/08 06:49:43;;;;;;;29.07;14.73;;;;;;;3.17;45.44;100968.66;5390738;32;44409;-68
2022/03/08 06:52:45;;;;;;;35.83;15.00;;;;;;;2.76;45.98;100973.78;5379268;32;34067;-67
2022/03/08 06:55:48;;;;;;;26.63;14.17;;;;;;;4.55;41.60;100972.66;5386229;32;35342;-66
2022/03/08 06:58:50;;;;;;;31.83;16.33;;;;;;;5.65;39.54;100960.53;5375541;32;36010;-65
2022/03/08 07:01:52;;;;;;;26.00;15.63;;;;;;;5.35;39.16;100966.91;5380021;32;35415;-64
2022/03/08 07:04:55;;;;;;;29.30;15.33;;;;;;;5.47;39.88;100960.69;5385786;32;34130;-66
2022/03/08 07:07:57;;;;;;;35.37;15.33;;;;;;;6.16;39.20;100955.66;5375507;32;34412;-73
2022/03/08 07:10:59;;;;;;;28.47;14.50;;;;;;;6.09;38.22;100961.84;5386157;32;34240;-72
2022/03/08 07:14:02;;;;;;;24.97;15.10;;;;;;;7.26;35.65;100956.72;5383532;32;34091;-70
2022/03/08 07:17:05;;;;;;;23.00;13.38;;;;;;;7.33;35.62;100958.34;5393422;32;35749;-68
2022/03/08 07:20:08;;;;;;;26.00;13.63;;;;;;;5.98;37.77;100967.19;5375736;32;35111;-72
2022/03/08 07:23:10;;;;;;;22.85;13.95;;;;;;;6.20;38.16;100966.06;5371898;32;44359;-72
2022/03/08 07:26:13;;;;;;;27.97;15.37;;;;;;;5.69;38.96;100968.31;5390173;32;34385;-71
2022/03/08 07:29:15;;;;;;;25.97;14.87;;;;;;;7.89;34.61;100961.72;5385691;32;34128;-73
2022/03/08 07:32:17;;;;;;;24.60;15.00;;;;;;;7.76;35.42;100966.31;5396809;32;34213;-69
2022/03/08 07:35:19;;;;;;;27.00;15.47;;;;;;;8.18;34.52;100960.25;5361489;32;36311;-67
2022/03/08 07:38:21;;;;;;;28.80;16.70;;;;;;;8.37;33.97;100965.16;5392561;32;34085;-69
2022/03/08 07:41:24;;;;;;;29.60;15.00;;;;;;;6.42;37.31;100969.25;5365001;32;35191;-68
2022/03/08 07:44:26;;;;;;;24.60;15.10;;;;;;;6.90;36.96;100973.84;5380989;32;34225;-77
2022/03/08 07:47:28;;;;;;;25.60;14.57;;;;;;;9.29;32.74;100963.06;5379379;32;34243;-68
2022/03/08 07:50:33;;;;;;;23.83;14.43;;;;;;;8.61;32.63;100966.38;5378907;32;35859;-71
2022/03/08 07:53:36;;;;;;;25.57;14.57;;;;;;;8.19;33.58;100968.13;5390328;32;34299;-71
2022/03/08 07:56:38;;;;;;;22.03;13.17;;;;;;;10.55;29.70;100955.25;5377559;32;34091;-72
2022/03/08 07:59:40;;;;;;;26.10;14.83;;;;;;;6.58;35.83;100967.34;5370298;32;44190;-78
2022/03/08 08:02:43;;;;;;;27.47;14.30;;;;;;;8.23;33.83;100961.91;5373553;32;34497;-68
2022/03/08 08:05:45;;;;;;;32.33;13.27;;;;;;;9.18;31.55;100965.09;5381116;32;34262;-78
2022/03/08 08:08:50;;;;;;;23.03;13.30;;;;;;;6.72;36.41;100975.84;5408151;32;34130;-65
2022/03/08 08:11:53;;;;;;;24.63;12.93;;;;;;;6.23;37.27;100967.75;5384333;32;34283;-65
2022/03/08 08:14:55;;;;;;;21.20;11.10;;;;;;;5.44;38.64;100970.28;5393942;32;34396;-64
2022/03/08 08:17:57;;;;;;;22.27;11.80;;;;;;;6.70;36.14;100953.25;5387908;32;32703;-71
2022/03/08 08:21:01;;;;;;;23.43;12.57;;;;;;;5.76;37.94;100961.31;5392657;32;32850;-80
2022/03/08 08:24:05;;;;;;;23.23;13.20;;;;;;;6.39;37.33;100963.22;5389636;32;36949;-73
2022/03/08 08:27:07;;;;;;;22.13;11.57;;;;;;;7.59;34.71;100953.53;5385393;32;34199;-71
2022/03/08 08:30:13;;;;;;;22.70;11.10;;;;;;;6.62;36.62;100965.53;5365361;32;34981;-73
2022/03/08 08:33:15;;;;;;;24.17;11.83;;;;;;;5.78;37.83;100964.75;5392614;32;44682;-70
2022/03/08 08:36:17;;;;;;;22.43;11.27;;;;;;;6.27;37.57;100959.03;5395210;32;34350;-68
2022/03/08 08:39:19;;;;;;;21.80;11.30;;;;;;;5.99;37.68;100961.09;5381716;32;34808;-67
2022/03/08 08:42:21;;;;;;;20.37;10.27;;;;;;;5.53;38.68;100963.25;5379466;32;34649;-72
2022/03/08 08:45:24;;;;;;;26.27;10.80;;;;;;;4.68;39.91;100959.56;5384579;32;34081;-71
2022/03/08 08:48:27;;;;;;;21.67;10.63;;;;;;;5.07;39.22;100961.91;5383899;32;34087;-68
2022/03/08 08:51:30;;;;;;;24.05;11.93;;;;;;;6.12;37.40;100954.84;5390766;32;35324;-74
2022/03/08 08:54:32;;;;;;;23.55;10.45;;;;;;;5.92;37.81;100956.81;5383443;32;33852;-74
2022/03/08 08:57:34;;;;;;;19.47;10.50;;;;;;;6.15;37.68;100951.34;5391857;32;35188;-69
2022/03/08 09:00:37;;;;;;;22.33;10.57;;;;;;;5.67;38.28;100956.19;5380159;32;35799;-71
2022/03/08 09:03:39;;;;;;;20.30;9.67;;;;;;;6.18;37.26;100944.34;5386440;32;45074;-70
2022/03/08 09:06:42;;;;;;;19.50;9.60;;;;;;;6.41;37.00;100936.22;5397302;32;44304;-71
2022/03/08 09:09:47;;;;;;;20.90;9.87;;;;;;;5.91;37.74;100945.50;5372395;32;35525;-77
2022/03/08 09:12:51;;;;;;;24.07;10.10;;;;;;;6.22;37.35;100948.63;5394668;32;34158;-68
2022/03/08 09:15:53;;;;;;;20.33;9.13;;;;;;;5.89;38.02;100951.59;5386768;32;34205;-63
2022/03/08 09:18:56;;;;;;;24.47;10.03;;;;;;;5.31;38.41;100947.81;5398824;32;35578;-72
2022/03/08 09:21:58;;;;;;;19.07;10.50;;;;;;;5.85;38.21;100942.06;5360039;32;35306;-71
2022/03/08 09:25:01;;;;;;;21.43;9.13;;;;;;;6.30;36.99;100947.66;5389304;32;34294;-75
2022/03/08 09:28:05;;;;;;;19.27;9.57;;;;;;;6.87;35.89;100940.78;5391406;32;34327;-65
2022/03/08 09:31:07;;;;;;;18.53;9.13;;;;;;;6.82;36.09;100941.72;5389047;32;34303;-71
2022/03/08 09:34:10;;;;;;;20.30;9.63;;;;;;;7.60;34.42;100934.34;5398888;32;43025;-68
2022/03/08 09:37:13;;;;;;;23.53;10.37;;;;;;;7.39;35.32;100939.94;5373255;32;34272;-69
2022/03/08 09:40:15;;;;;;;19.00;8.70;;;;;;;6.89;35.93;100946.88;5366879;32;35458;-68
2022/03/08 09:43:17;;;;;;;18.27;9.60;;;;;;;7.11;35.37;100938.69;5354268;32;35464;-70
2022/03/08 09:46:19;;;;;;;20.53;10.00;;;;;;;7.06;35.54;100952.66;5370908;32;34308;-63
2022/03/08 09:49:22;;;;;;;19.83;10.70;;;;;;;6.77;36.28;100944.44;5394916;32;33989;-67
2022/03/08 09:52:24;;;;;;;20.03;9.63;;;;;;;6.09;37.37;100935.75;5384005;32;33251;-74
2022/03/08 09:55:26;;;;;;;17.83;10.33;;;;;;;6.94;36.04;100937.19;5382391;32;35369;-66
2022/03/08 09:58:29;;;;;;;19.57;10.27;;;;;;;8.58;33.27;100926.28;5389021;32;32888;-65
2022/03/08 10:01:31;;;;;;;20.20;10.40;;;;;;;10.64;29.66;100920.84;5386887;32;34119;-66
2022/03/08 10:04:38;;;;;;;16.00;8.90;;;;;;;12.11;27.94;100914.09;5385629;32;35356;-64
2022/03/08 10:08:03;;;;;;;16.50;9.15;;;;;;;12.31;26.58;100913.34;5384698;32;34435;-77
2022/03/08 10:11:12;;;;;;;16.30;9.00;;;;;;;14.42;23.15;100906.22;5393197;32;37428;-71
2022/03/08 10:14:39;;;;;;;16.77;10.23;;;;;;;11.68;26.92;100927.06;5388363;32;35660;-84
2022/03/08 10:17:41;;;;;;;13.87;8.17;;;;;;;16.03;21.46;100912.31;5381584;32;44192;-75
2022/03/08 10:20:45;;;;;;;18.13;7.40;;;;;;;15.89;21.06;100907.75;5379804;32;35874;-71
2022/03/08 10:23:47;;;;;;;13.23;6.63;;;;;;;13.17;23.73;100917.88;5374219;32;34202;-72
2022/03/08 10:27:02;;;;;;;14.45;7.93;;;;;;;16.40;19.88;100912.03;5392603;32;35295;-75
2022/03/08 10:30:05;;;;;;;15.00;8.70;;;;;;;16.96;18.97;100904.53;5388101;32;34100;-76
2022/03/08 10:33:36;;;;;;;12.60;7.70;;;;;;;14.47;21.36;100917.47;5397624;32;35727;-69
2022/03/08 10:36:42;;;;;;;14.77;7.63;;;;;;;15.60;19.71;100904.81;5376705;32;33992;-70
2022/03/08 10:39:58;;;;;;;14.20;7.60;;;;;;;16.04;19.55;100904.31;5379162;32;35406;-70
2022/03/08 10:43:03;;;;;;;16.33;7.53;;;;;;;19.11;16.67;100872.53;5390161;32;34234;-69
2022/03/08 10:46:15;;;;;;;13.50;8.23;;;;;;;18.29;16.89;100884.09;5398235;32;33972;-68
2022/03/08 10:49:18;;;;;;;14.13;8.35;;;;;;;17.08;18.52;100887.91;5396022;32;43404;-77
2022/03/08 10:52:32;;;;;;;12.23;6.77;;;;;;;19.02;16.93;100886.47;5387531;32;34147;-72
2022/03/08 10:55:38;;;;;;;8.75;5.03;;;;;;;18.71;15.72;100890.28;5385033;32;35334;-68
2022/03/08 10:58:48;;;;;;;10.43;5.50;;;;;;;16.60;16.42;100897.66;5394681;32;45121;-73
2022/03/08 11:01:51;;;;;;;10.83;5.70;;;;;;;19.48;13.90;100880.72;5362063;32;33405;-69
2022/03/08 11:05:08;;;;;;;13.68;6.80;;;;;;;14.61;18.31;100891.22;5395234;32;36510;-70
2022/03/08 11:08:11;;;;;;;13.20;7.50;;;;;;;16.02;18.85;100886.75;5382735;32;47005;-70
2022/03/08 11:11:13;;;;;;;15.23;9.30;;;;;;;19.03;16.10;100874.84;5387158;32;35343;-72
2022/03/08 11:14:16;;;;;;;14.65;8.25;;;;;;;14.81;20.42;100882.31;5394502;32;35604;-82
2022/03/08 11:17:18;;;;;;;14.48;7.35;;;;;;;15.53;19.34;100891.97;5384869;32;34068;-75
2022/03/08 11:20:22;;;;;;;13.48;7.30;;;;;;;15.47;19.13;100884.34;5392595;32;35294;-76
2022/03/08 11:23:25;;;;;;;12.77;6.90;;;;;;;13.69;21.71;100876.91;5387219;32;33337;-70
2022/03/08 11:26:27;;;;;;;14.70;6.65;;;;;;;14.20;20.53;100877.28;5402834;32;34174;-69
2022/03/08 11:29:31;;;;;;;11.38;6.43;;;;;;;13.58;21.11;100878.31;5357463;32;34216;-70
2022/03/08 11:33:14;;;;;;;10.77;5.45;;;;;;;13.64;20.59;100872.75;5371762;32;35235;-70
2022/03/08 11:36:28;;;;;;;14.85;5.87;;;;;;;12.61;21.05;100878.78;5382928;32;35426;-71
2022/03/08 11:39:31;;;;;;;15.37;6.23;;;;;;;12.53;21.96;100870.34;5379382;32;35205;-70
2022/03/08 11:42:36;;;;;;;10.30;5.60;;;;;;;10.73;23.14;100873.22;5384203;32;33257;-69
2022/03/08 11:45:39;;;;;;;12.40;5.93;;;;;;;10.88;23.29;100863.97;5377617;32;35921;-71
2022/03/08 11:48:56;;;;;;;11.07;5.43;;;;;;;12.39;21.91;100857.72;5378544;32;45072;-71
2022/03/08 11:52:30;;;;;;;14.10;4.57;;;;;;;11.68;21.82;100856.84;5400977;32;35958;-72
2022/03/08 11:55:36;;;;;;;7.87;3.97;;;;;;;11.93;20.69;100851.56;5363134;32;32763;-69
2022/03/08 11:58:44;;;;;;;9.30;4.30;;;;;;;11.62;20.40;100850.00;5370896;32;34033;-68
2022/03/08 12:01:47;;;;;;;12.40;5.67;;;;;;;11.22;21.14;100847.94;5390332;32;44689;-74
2022/03/08 12:04:50;;;;;;;;;;;;;;;11.61;21.04;100845.66;5388351;32;34773;-70
2022/03/08 12:07:53;;;;;;;11.40;5.00;;;;;;;11.82;20.54;100844.03;5391405;32;33167;-71
2022/03/08 12:11:05;;;;;;;13.25;5.35;;;;;;;11.02;21.65;100845.97;5383069;32;34127;-71
2022/03/08 12:14:14;;;;;;;17.63;5.40;;;;;;;13.84;18.91;100830.44;5392318;32;43333;-71
2022/03/08 12:17:18;;;;;;;9.77;4.60;;;;;;;13.23;19.37;100820.84;5389701;32;35821;-72
2022/03/08 12:20:21;;;;;;;9.13;4.93;;;;;;;12.30;20.12;100831.69;5387777;32;34212;-78
2022/03/08 12:23:23;;;;;;;9.80;4.60;;;;;;;13.65;19.11;100826.94;5360605;32;34166;-84
2022/03/08 12:26:42;;;;;;;8.77;4.47;;;;;;;11.73;21.22;100832.97;5386489;32;34375;-81
2022/03/08 12:30:06;;;;;;;9.63;4.80;;;;;;;14.24;18.97;100823.34;5395210;32;35700;-73
2022/03/08 12:33:09;;;;;;;20.17;5.10;;;;;;;14.94;17.28;100819.94;5379308;32;34380;-74
2022/03/08 12:36:11;;;;;;;9.60;4.83;;;;;;;12.61;19.25;100836.59;5383232;32;44570;-78
2022/03/08 12:39:51;;;;;;;12.40;4.43;;;;;;;13.74;18.84;100824.75;5392553;32;33916;-72
2022/03/08 12:42:56;;;;;;;9.47;5.00;;;;;;;12.51;19.71;100830.00;5381190;32;34178;-70
2022/03/08 12:45:59;;;;;;;9.73;5.23;;;;;;;10.62;21.92;100828.00;5382907;32;34223;-69
2022/03/08 12:49:02;;;;;;;16.80;5.30;;;;;;;14.01;18.78;100801.47;5382778;32;35492;-71
2022/03/08 12:52:04;;;;;;;9.97;4.30;;;;;;;15.06;17.99;100789.31;5369323;32;34048;-71
2022/03/08 12:55:12;;;;;;;12.02;4.43;;;;;;;16.85;16.12;100774.22;5388626;32;33953;-71
2022/03/08 12:58:16;;;;;;;13.77;4.67;;;;;;;15.61;17.15;100794.38;5369019;32;44552;-68
2022/03/08 13:01:19;;;;;;;10.20;4.67;;;;;;;16.23;16.06;100785.69;5394820;32;34155;-67
2022/03/08 13:04:24;;;;;;;10.90;4.50;;;;;;;13.56;18.04;100793.88;5383837;32;34841;-70
2022/03/08 13:07:28;;;;;;;13.70;5.07;;;;;;;14.69;17.98;100777.97;5390935;32;35113;-68
2022/03/08 13:10:31;;;;;;;10.67;5.23;;;;;;;14.95;17.68;100781.94;5387404;32;34078;-68
2022/03/08 13:13:46;;;;;;;9.00;5.10;;;;;;;14.18;18.68;100786.63;5385592;32;46365;-67
2022/03/08 13:16:49;;;;;;;10.40;4.90;;;;;;;14.13;18.60;100793.91;5390609;32;33937;-68
2022/03/08 13:19:51;;;;;;;9.23;4.70;;;;;;;16.52;16.68;100772.53;5388475;32;37167;-69
2022/03/08 13:22:55;;;;;;;13.03;5.23;;;;;;;15.76;17.13;100779.47;5395394;32;35226;-70
2022/03/08 13:25:59;;;;;;;10.13;5.07;;;;;;;15.61;17.52;100783.78;5387205;32;34164;-69
2022/03/08 13:29:01;;;;;;;12.00;4.93;;;;;;;13.59;18.90;100780.53;5368367;32;34052;-67
2022/03/08 13:32:06;;;;;;;10.00;5.07;;;;;;;14.69;18.17;100775.31;5393566;32;34072;-67
2022/03/08 13:35:10;;;;;;;11.27;5.60;;;;;;;14.01;18.65;100775.03;5390806;32;32769;-64
2022/03/08 13:38:15;;;;;;;11.87;5.13;;;;;;;12.91;20.33;100782.59;5394384;32;44047;-66
2022/03/08 13:41:18;;;;;;;12.87;5.67;;;;;;;10.87;21.98;100800.91;5370429;32;34138;-65
2022/03/08 13:44:24;;;;;;;16.47;5.70;;;;;;;13.80;19.56;100783.97;5379462;32;34479;-64
2022/03/08 13:47:27;;;;;;;10.67;4.97;;;;;;;18.53;14.86;100761.00;5389632;32;33969;-65
2022/03/08 13:50:30;;;;;;;10.03;5.30;;;;;;;17.22;15.72;100768.41;5382980;32;34263;-66
2022/03/08 13:53:32;;;;;;;9.07;4.70;;;;;;;21.20;12.56;100757.84;5384077;32;34054;-70
2022/03/08 13:57:03;;;;;;;10.25;5.10;;;;;;;20.33;12.61;100756.41;5373947;32;35484;-68
2022/03/08 14:00:07;;;;;;;12.60;6.13;;;;;;;22.05;11.32;100743.97;5375892;32;35954;-68
2022/03/08 14:03:10;;;;;;;13.23;5.70;;;;;;;21.99;11.50;100747.16;5370931;32;35553;-67
2022/03/08 14:06:15;;;;;;;8.70;5.00;;;;;;;17.72;14.58;100771.59;5387089;32;44381;-71
2022/03/08 14:09:18;;;;;;;12.03;5.23;;;;;;;13.37;18.74;100769.22;5396609;32;33865;-74